createdAt,value
2022-08-02T00:00:57.372Z,1.30
2022-08-02T00:03:24.892Z,1.52
2022-08-02T00:05:53.627Z,1.48
2022-08-02T00:08:21.879Z,1.35
2022-08-02T00:10:49.247Z,1.30
2022-08-02T00:13:16.613Z,1.58
2022-08-02T00:15:43.942Z,1.45
2022-08-02T00:18:11.520Z,1.75
2022-08-02T00:20:39.035Z,1.50
2022-08-02T00:23:06.341Z,1.38
2022-08-02T00:25:33.701Z,1.52
2022-08-02T00:28:01.014Z,1.50
2022-08-02T00:30:28.339Z,1.60
2022-08-02T00:32:55.801Z,1.58
2022-08-02T00:35:23.226Z,2.03
2022-08-02T00:37:50.512Z,2.05
2022-08-02T00:40:21.909Z,2.30
2022-08-02T00:43:00.750Z,1.50
2022-08-02T00:46:03.520Z,1.95
2022-08-02T00:48:16.557Z,1.63
2022-08-02T00:50:43.862Z,1.77
2022-08-02T00:53:11.153Z,2.70
2022-08-02T00:55:40.061Z,1.75
2022-08-02T00:58:08.236Z,1.67
2022-08-02T01:00:35.532Z,1.75
2022-08-02T01:03:02.890Z,2.10
2022-08-02T01:05:30.247Z,2.80
2022-08-02T01:07:57.988Z,1.95
2022-08-02T01:10:25.443Z,1.83
2022-08-02T01:12:52.874Z,1.33
2022-08-02T01:15:20.498Z,1.80
2022-08-02T01:17:57.104Z,1.33
2022-08-02T01:20:43.372Z,1.88
2022-08-02T01:23:16.874Z,1.80
2022-08-02T01:25:59.654Z,1.92
2022-08-02T01:28:41.860Z,2.97
2022-08-02T01:31:09.147Z,1.63
2022-08-02T01:33:39.775Z,2.38
2022-08-02T01:36:10.394Z,2.55
2022-08-02T01:38:40.193Z,2.30
2022-08-02T01:41:10.530Z,2.03
2022-08-02T01:43:39.096Z,2.10
2022-08-02T01:46:06.741Z,2.13
2022-08-02T01:48:35.128Z,2.45
2022-08-02T01:51:03.567Z,1.95
2022-08-02T01:53:31.433Z,2.35
2022-08-02T01:56:00.411Z,2.22
2022-08-02T01:58:29.986Z,1.60
2022-08-02T02:00:58.287Z,2.15
2022-08-02T02:03:26.471Z,1.77
2022-08-02T02:05:56.465Z,2.97
2022-08-02T02:08:42.609Z,1.92
2022-08-02T02:12:09.429Z,2.47
2022-08-02T02:13:59.643Z,2.17
2022-08-02T02:16:27.435Z,2.65
2022-08-02T02:18:55.352Z,1.45
2022-08-02T02:21:22.748Z,1.80
2022-08-02T02:23:50.903Z,2.25
2022-08-02T02:26:27.372Z,1.83
2022-08-02T02:29:01.071Z,2.15
2022-08-02T02:31:29.799Z,1.92
2022-08-02T02:34:03.156Z,1.98
2022-08-02T02:36:31.656Z,2.97
2022-08-02T02:39:00.597Z,1.77
2022-08-02T02:41:29.490Z,2.00
2022-08-02T02:43:59.169Z,2.20
2022-08-02T02:46:28.524Z,2.33
2022-08-02T02:48:56.216Z,2.25
2022-08-02T02:51:25.001Z,2.22
2022-08-02T02:54:34.254Z,2.40
2022-08-02T02:56:41.307Z,2.03
2022-08-02T02:59:09.398Z,2.63
2022-08-02T03:01:57.322Z,2.70
2022-08-02T03:04:25.077Z,2.80
2022-08-02T03:06:52.578Z,2.30
2022-08-02T03:09:20.035Z,2.45
2022-08-02T03:11:50.590Z,2.45
2022-08-02T03:14:18.290Z,2.03
2022-08-02T03:16:46.378Z,2.58
2022-08-02T03:19:14.114Z,2.25
2022-08-02T03:21:42.678Z,2.95
2022-08-02T03:24:10.182Z,2.08
2022-08-02T03:26:37.634Z,2.05
2022-08-02T03:29:10.219Z,1.55
2022-08-02T03:31:40.733Z,1.92
2022-08-02T03:34:08.516Z,2.30
2022-08-02T03:36:36.559Z,1.10
2022-08-02T03:39:05.099Z,1.88
2022-08-02T03:41:32.815Z,1.40
2022-08-02T03:44:00.905Z,1.27
2022-08-02T03:46:28.327Z,1.65
2022-08-02T03:48:56.371Z,1.00
2022-08-02T03:51:23.887Z,1.13
2022-08-02T03:53:51.924Z,1.20
2022-08-02T03:56:19.464Z,1.38
2022-08-02T03:58:49.262Z,1.70
2022-08-02T04:01:17.057Z,1.52
2022-08-02T04:03:44.616Z,1.38
2022-08-02T04:06:11.978Z,1.20
2022-08-02T04:08:39.265Z,1.83
2022-08-02T04:11:25.855Z,1.30
2022-08-02T04:13:56.482Z,1.95
2022-08-02T04:16:29.194Z,1.30
2022-08-02T04:18:57.625Z,1.10
2022-08-02T04:21:26.408Z,1.17
2022-08-02T04:24:18.528Z,1.30
2022-08-02T04:29:17.953Z,1.20
2022-08-02T04:31:45.274Z,1.33
2022-08-02T04:34:15.090Z,0.90
2022-08-02T04:36:43.349Z,1.30
2022-08-02T04:39:10.835Z,1.35
2022-08-02T04:41:44.204Z,1.05
2022-08-02T04:44:11.836Z,1.27
2022-08-02T04:46:39.629Z,2.20
2022-08-02T04:49:07.080Z,1.48
2022-08-02T04:51:38.884Z,1.40
2022-08-02T04:54:10.030Z,1.42
2022-08-02T04:56:40.826Z,1.20
2022-08-02T04:59:08.136Z,1.05
2022-08-02T05:01:36.006Z,1.30
2022-08-02T05:04:03.747Z,1.00
2022-08-02T05:06:31.064Z,1.65
2022-08-02T05:08:58.414Z,1.00
2022-08-02T05:11:34.421Z,1.40
2022-08-02T05:14:04.202Z,1.20
2022-08-02T05:16:32.266Z,1.40
2022-08-02T05:19:01.049Z,1.60
2022-08-02T05:21:28.597Z,1.08
2022-08-02T05:23:55.970Z,0.70
2022-08-02T05:26:23.290Z,1.40
2022-08-02T05:28:50.554Z,1.10
2022-08-02T05:31:17.833Z,1.10
2022-08-02T05:33:45.196Z,1.05
2022-08-02T05:36:12.513Z,1.10
2022-08-02T05:38:39.811Z,1.40
2022-08-02T05:41:09.440Z,1.13
2022-08-02T05:43:36.739Z,1.00
2022-08-02T05:46:04.063Z,1.02
2022-08-02T05:48:32.349Z,1.00
2022-08-02T05:51:20.127Z,1.10
2022-08-02T05:53:51.595Z,0.90
2022-08-02T05:56:19.209Z,1.30
2022-08-02T05:58:49.549Z,0.90
2022-08-02T06:01:20.065Z,1.30
2022-08-02T06:03:52.199Z,0.90
2022-08-02T06:06:25.019Z,1.23
2022-08-02T06:08:56.195Z,0.93
2022-08-02T06:11:24.256Z,1.00
2022-08-02T06:13:51.941Z,1.10
2022-08-02T06:16:32.209Z,1.15
2022-08-02T06:19:00.510Z,0.95
2022-08-02T06:22:32.652Z,0.70
2022-08-02T06:24:18.954Z,1.05
2022-08-02T06:26:46.639Z,0.60
2022-08-02T06:29:14.683Z,0.50
2022-08-02T06:31:45.328Z,0.60
2022-08-02T06:34:12.649Z,0.47
2022-08-02T06:37:06.106Z,0.30
2022-08-02T06:39:38.894Z,0.35
2022-08-02T06:42:13.003Z,0.40
2022-08-02T06:44:52.931Z,0.40
2022-08-02T06:47:22.928Z,0.90
2022-08-02T06:49:52.920Z,0.50
2022-08-02T06:52:31.332Z,0.35
2022-08-02T06:55:03.264Z,0.63
2022-08-02T06:57:30.802Z,0.50
2022-08-02T07:00:01.017Z,0.82
2022-08-02T07:02:28.402Z,0.50
2022-08-02T07:04:55.788Z,0.40
2022-08-02T07:07:23.230Z,0.43
2022-08-02T07:09:56.512Z,0.40
2022-08-02T07:12:27.931Z,0.50
2022-08-02T07:14:55.355Z,0.50
2022-08-02T07:17:22.682Z,0.77
2022-08-02T07:19:50.092Z,0.60
2022-08-02T07:22:19.289Z,0.60
2022-08-02T07:24:46.633Z,0.50
2022-08-02T07:27:14.016Z,0.82
2022-08-02T07:29:46.709Z,0.82
2022-08-02T07:32:22.470Z,0.63
2022-08-02T07:34:52.601Z,0.50
2022-08-02T07:37:53.814Z,0.40
2022-08-02T07:40:14.155Z,0.35
2022-08-02T07:42:45.471Z,0.63
2022-08-02T07:45:13.219Z,0.80
2022-08-02T07:47:41.335Z,0.40
2022-08-02T07:50:09.949Z,0.60
2022-08-02T07:52:37.327Z,0.40
2022-08-02T07:55:08.470Z,0.47
2022-08-02T07:57:35.788Z,0.40
2022-08-02T08:00:03.315Z,0.50
2022-08-02T08:02:30.889Z,0.57
2022-08-02T08:04:58.307Z,0.50
2022-08-02T08:07:25.630Z,0.55
2022-08-02T08:09:56.663Z,0.50
2022-08-02T08:12:24.356Z,0.47
2022-08-02T08:14:51.748Z,0.57
2022-08-02T08:17:19.227Z,0.45
2022-08-02T08:19:50.908Z,0.50
2022-08-02T08:22:19.368Z,0.40
2022-08-02T08:24:47.983Z,0.45
2022-08-02T08:27:15.788Z,0.40
2022-08-02T08:29:43.715Z,0.50
2022-08-02T08:32:16.175Z,0.45
2022-08-02T08:34:45.132Z,0.40
2022-08-02T08:37:17.189Z,0.60
2022-08-02T08:39:58.338Z,0.55
2022-08-02T08:42:29.457Z,0.50
2022-08-02T08:44:57.819Z,0.30
2022-08-02T08:47:38.929Z,0.30
2022-08-02T08:50:26.701Z,0.30
2022-08-02T08:53:04.582Z,0.20
2022-08-02T08:55:32.505Z,0.35
2022-08-02T08:58:00.462Z,0.32
2022-08-02T09:00:28.287Z,0.50
2022-08-02T09:02:55.624Z,0.47
2022-08-02T09:05:23.003Z,0.40
2022-08-02T09:07:51.152Z,0.32
2022-08-02T09:10:35.177Z,0.60
2022-08-02T09:13:31.209Z,0.70
2022-08-02T09:16:12.229Z,1.10
2022-08-02T09:18:44.095Z,0.52
2022-08-02T09:21:11.679Z,0.50
2022-08-02T09:23:39.996Z,0.45
2022-08-02T09:26:15.971Z,0.40
2022-08-02T09:28:44.333Z,0.40
2022-08-02T09:31:13.354Z,0.30
2022-08-02T09:33:43.905Z,0.40
2022-08-02T09:36:12.675Z,0.50
2022-08-02T09:38:40.779Z,0.55
2022-08-02T09:41:20.553Z,0.50
2022-08-02T09:44:03.157Z,0.77
2022-08-02T09:46:33.508Z,0.52
2022-08-02T09:49:01.873Z,0.68
2022-08-02T09:51:30.365Z,0.73
2022-08-02T09:54:08.286Z,0.43
2022-08-02T09:56:52.689Z,0.50
2022-08-02T09:59:21.288Z,0.57
2022-08-02T10:01:51.467Z,0.50
2022-08-02T10:04:52.965Z,1.10
2022-08-02T10:07:21.593Z,0.88
2022-08-02T10:09:49.910Z,1.23
2022-08-02T10:12:17.407Z,0.70
2022-08-02T10:14:45.844Z,0.77
2022-08-02T10:17:13.330Z,0.70
2022-08-02T10:20:01.353Z,0.50
2022-08-02T10:22:28.248Z,0.57
2022-08-02T10:24:55.777Z,0.57
2022-08-02T10:27:25.166Z,0.68
2022-08-02T10:29:55.807Z,0.50
2022-08-02T10:32:32.245Z,0.47
2022-08-02T10:35:02.711Z,0.50
2022-08-02T10:37:49.124Z,0.43
2022-08-02T10:40:28.847Z,0.40
2022-08-02T10:43:01.287Z,0.40
2022-08-02T10:45:29.597Z,0.40
2022-08-02T10:48:16.624Z,0.40
2022-08-02T10:50:46.963Z,0.50
2022-08-02T10:53:26.094Z,1.02
2022-08-02T10:55:54.282Z,0.60
2022-08-02T10:58:26.061Z,1.08
2022-08-02T11:00:53.950Z,0.60
2022-08-02T11:03:40.714Z,0.30
2022-08-02T11:06:24.778Z,0.50
2022-08-02T11:09:12.588Z,0.70
2022-08-02T11:11:59.934Z,0.77
2022-08-02T11:14:27.539Z,0.50
2022-08-02T11:16:57.707Z,0.70
2022-08-02T11:19:25.565Z,0.73
2022-08-02T11:22:02.504Z,0.90
2022-08-02T11:24:33.850Z,0.80
2022-08-02T11:27:02.215Z,1.05
2022-08-02T11:29:51.090Z,0.98
2022-08-02T11:32:20.200Z,1.13
2022-08-02T11:34:49.092Z,1.15
2022-08-02T11:37:32.917Z,1.73
2022-08-02T11:40:00.230Z,1.65
2022-08-02T11:42:34.268Z,1.77
2022-08-02T11:45:01.790Z,2.53
2022-08-02T11:47:29.223Z,2.55
2022-08-02T11:50:06.967Z,2.40
2022-08-02T11:52:35.012Z,2.05
2022-08-02T11:55:02.714Z,1.95
2022-08-02T11:57:30.058Z,1.60
2022-08-02T12:00:18.808Z,1.50
2022-08-02T12:02:49.911Z,1.40
2022-08-02T12:05:18.929Z,0.90
2022-08-02T12:07:47.538Z,1.30
2022-08-02T12:10:18.716Z,1.15
2022-08-02T12:12:53.607Z,1.40
2022-08-02T12:15:31.165Z,1.60
2022-08-02T12:18:17.573Z,1.60
2022-08-02T12:20:44.971Z,1.52
2022-08-02T12:23:12.486Z,1.92
2022-08-02T12:25:39.893Z,2.42
2022-08-02T12:28:17.316Z,2.42
2022-08-02T12:30:59.272Z,1.48
2022-08-02T12:33:27.933Z,1.77
2022-08-02T12:35:55.388Z,2.58
2022-08-02T12:38:22.944Z,1.90
2022-08-02T12:40:50.258Z,1.23
2022-08-02T12:43:19.298Z,1.17
2022-08-02T12:46:04.886Z,1.08
2022-08-02T12:48:36.974Z,1.00
2022-08-02T12:51:23.802Z,1.50
2022-08-02T12:53:59.870Z,1.70
2022-08-02T12:56:31.473Z,1.27
2022-08-02T12:58:59.059Z,1.90
2022-08-02T13:01:27.430Z,1.70
2022-08-02T13:04:12.213Z,1.55
2022-08-02T13:06:44.301Z,2.22
2022-08-02T13:09:13.542Z,2.33
2022-08-02T13:11:42.909Z,1.40
2022-08-02T13:14:11.704Z,1.83
2022-08-02T13:16:39.043Z,2.40
2022-08-02T13:19:06.361Z,2.00
2022-08-02T13:21:40.972Z,1.50
2022-08-02T13:24:38.725Z,1.50
2022-08-02T13:27:09.346Z,2.45
2022-08-02T13:29:37.743Z,2.55
2022-08-02T13:32:05.069Z,2.15
2022-08-02T13:34:32.488Z,1.90
2022-08-02T13:36:59.775Z,1.98
2022-08-02T13:39:27.088Z,1.60
2022-08-02T13:41:55.202Z,2.13
2022-08-02T13:44:22.683Z,2.30
2022-08-02T13:46:50.061Z,2.47
2022-08-02T13:49:19.909Z,2.40
2022-08-02T13:51:51.019Z,2.05
2022-08-02T13:54:18.367Z,2.05
2022-08-02T13:56:45.690Z,2.97
2022-08-02T13:59:26.343Z,2.75
2022-08-02T14:02:00.591Z,2.33
2022-08-02T14:04:29.684Z,1.90
2022-08-02T14:06:58.877Z,2.22
2022-08-02T14:09:26.638Z,2.47
2022-08-02T14:11:53.987Z,2.30
2022-08-02T14:14:21.398Z,2.42
2022-08-02T14:16:48.845Z,1.90
2022-08-02T14:19:17.341Z,2.53
2022-08-02T14:21:48.722Z,2.20
2022-08-02T14:24:20.061Z,2.35
2022-08-02T14:26:47.927Z,2.10
2022-08-02T14:29:15.760Z,2.08
2022-08-02T14:31:44.563Z,2.13
2022-08-02T14:34:13.330Z,2.70
2022-08-02T14:36:40.644Z,2.65
2022-08-02T14:39:08.003Z,2.90
2022-08-02T14:41:59.187Z,2.28
2022-08-02T14:44:24.250Z,2.80
2022-08-02T14:46:52.934Z,2.33
2022-08-02T14:49:24.308Z,2.55
2022-08-02T14:51:53.432Z,1.98
2022-08-02T14:54:20.823Z,3.22
2022-08-02T14:56:56.376Z,2.13
2022-08-02T14:59:23.868Z,1.65
2022-08-02T15:01:51.197Z,2.08
2022-08-02T15:04:18.805Z,1.83
2022-08-02T15:06:46.218Z,1.90
2022-08-02T15:09:13.681Z,1.80
2022-08-02T15:11:47.058Z,1.50
2022-08-02T15:14:21.755Z,2.13
2022-08-02T15:16:58.503Z,1.80
2022-08-02T15:19:40.868Z,1.55
2022-08-02T15:22:16.844Z,1.45
2022-08-02T15:24:47.671Z,2.22
2022-08-02T15:27:15.541Z,1.60
2022-08-02T15:29:46.646Z,1.30
2022-08-02T15:32:15.124Z,2.10
2022-08-02T15:34:42.784Z,1.70
2022-08-02T15:37:10.060Z,1.88
2022-08-02T15:39:37.610Z,1.98
2022-08-02T15:42:05.402Z,1.50
2022-08-02T15:44:32.795Z,2.17
2022-08-02T15:47:00.152Z,2.63
2022-08-02T15:49:27.494Z,1.60
2022-08-02T15:51:55.056Z,2.03
2022-08-02T15:54:22.574Z,1.63
2022-08-02T15:56:50.452Z,1.95
2022-08-02T15:59:17.932Z,1.70
2022-08-02T16:01:48.069Z,1.63
2022-08-02T16:04:15.908Z,1.55
2022-08-02T16:06:43.671Z,2.10
2022-08-02T16:09:11.006Z,1.70
2022-08-02T16:11:38.456Z,1.77
2022-08-02T16:14:06.083Z,1.67
2022-08-02T16:16:34.516Z,1.25
2022-08-02T16:19:46.153Z,1.50
2022-08-02T16:21:50.581Z,1.40
2022-08-02T16:24:18.098Z,1.40
2022-08-02T16:26:45.567Z,2.05
2022-08-02T16:29:13.115Z,2.03
2022-08-02T16:31:42.765Z,1.42
2022-08-02T16:34:10.394Z,1.50
2022-08-02T16:36:38.079Z,1.38
2022-08-02T16:39:05.665Z,1.80
2022-08-02T16:41:52.227Z,1.42
2022-08-02T16:44:29.538Z,1.48
2022-08-02T16:47:01.128Z,1.33
2022-08-02T16:50:05.092Z,1.52
2022-08-02T16:52:16.646Z,1.30
2022-08-02T16:54:49.314Z,1.73
2022-08-02T16:57:17.410Z,1.20
2022-08-02T16:59:57.856Z,1.25
2022-08-02T17:02:26.484Z,1.38
2022-08-02T17:04:53.837Z,1.50
2022-08-02T17:08:15.166Z,1.75
2022-08-02T17:10:09.389Z,1.10
2022-08-02T17:12:37.282Z,1.40
2022-08-02T17:16:08.517Z,1.52
2022-08-02T17:17:52.340Z,1.90
2022-08-02T17:20:19.798Z,1.40
2022-08-02T17:22:47.337Z,1.20
2022-08-02T17:25:17.610Z,1.25
2022-08-02T17:27:45.375Z,1.13
2022-08-02T17:30:13.378Z,1.20
2022-08-02T17:32:45.424Z,1.30
2022-08-02T17:35:43.379Z,1.35
2022-08-02T17:42:10.784Z,1.58
2022-08-02T17:44:42.927Z,1.40
2022-08-02T17:47:16.411Z,1.20
2022-08-02T17:49:48.444Z,1.63
2022-08-02T17:52:51.868Z,1.15
2022-08-02T17:55:20.690Z,1.08
2022-08-02T17:57:57.368Z,1.83
2022-08-02T18:00:26.734Z,1.20
2022-08-02T18:02:55.452Z,1.10
2022-08-02T18:05:39.408Z,1.25
2022-08-02T18:08:09.357Z,0.98
2022-08-02T18:10:36.842Z,1.70
2022-08-02T18:13:05.322Z,1.10
2022-08-02T18:15:33.364Z,1.40
2022-08-02T18:18:01.204Z,1.27
2022-08-02T18:20:29.835Z,0.90
2022-08-02T18:22:58.765Z,1.15
2022-08-02T18:25:36.249Z,1.00
2022-08-02T18:28:05.365Z,1.27
2022-08-02T18:30:34.006Z,1.10
2022-08-02T18:33:58.736Z,1.10
2022-08-02T18:35:49.059Z,1.38
2022-08-02T18:38:16.606Z,1.35
2022-08-02T18:40:44.221Z,1.38
2022-08-02T18:43:18.774Z,1.20
2022-08-02T18:46:06.423Z,1.35
2022-08-02T18:48:39.992Z,1.13
2022-08-02T18:51:14.645Z,1.35
2022-08-02T18:53:43.043Z,1.55
2022-08-02T18:56:19.330Z,1.02
2022-08-02T18:58:52.669Z,1.55
2022-08-02T19:01:32.723Z,1.70
2022-08-02T19:04:02.261Z,1.25
2022-08-02T19:06:30.697Z,2.10
2022-08-02T19:09:06.128Z,1.10
2022-08-02T19:11:40.925Z,1.27
2022-08-02T19:14:08.802Z,1.50
2022-08-02T19:16:37.715Z,1.70
2022-08-02T19:19:08.940Z,2.58
2022-08-02T19:22:16.053Z,1.40
2022-08-02T19:24:23.673Z,1.20
2022-08-02T19:26:52.475Z,2.13
2022-08-02T19:29:25.153Z,1.60
2022-08-02T19:32:41.682Z,1.90
2022-08-02T19:35:00.980Z,2.05
2022-08-02T19:37:31.458Z,1.98
2022-08-02T19:40:04.626Z,1.95
2022-08-02T19:42:41.715Z,1.48
2022-08-02T19:45:48.417Z,1.73
2022-08-02T19:48:14.892Z,1.70
2022-08-02T19:50:44.300Z,1.88
2022-08-02T19:53:17.313Z,1.52
2022-08-02T19:55:58.326Z,1.38
2022-08-02T19:58:26.656Z,2.73
2022-08-02T20:00:54.597Z,1.60
2022-08-02T20:03:39.859Z,1.27
2022-08-02T20:06:10.155Z,1.60
2022-08-02T20:08:39.639Z,1.67
2022-08-02T20:11:15.014Z,2.00
2022-08-02T20:13:47.387Z,2.15
2022-08-02T20:16:20.869Z,1.48
2022-08-02T20:18:56.336Z,1.65
2022-08-02T20:21:36.398Z,2.85
2022-08-02T20:24:13.765Z,2.42
2022-08-02T20:26:47.181Z,2.45
2022-08-02T20:29:42.468Z,1.85
2022-08-02T20:32:29.663Z,1.60
2022-08-02T20:34:57.497Z,2.72
2022-08-02T20:37:59.381Z,2.72
2022-08-02T20:40:16.852Z,2.15
2022-08-02T20:42:45.136Z,2.28
2022-08-02T20:45:15.454Z,2.58
2022-08-02T20:47:42.725Z,2.85
2022-08-02T20:50:32.216Z,2.53
2022-08-02T20:53:02.639Z,2.50
2022-08-02T20:55:31.915Z,2.50
2022-08-02T20:58:04.353Z,2.78
2022-08-02T21:00:32.165Z,2.90
2022-08-02T21:03:00.223Z,3.28
2022-08-02T21:05:54.518Z,2.58
2022-08-02T21:08:15.597Z,2.65
2022-08-02T21:10:50.368Z,2.90
2022-08-02T21:13:22.358Z,2.15
2022-08-02T21:15:50.140Z,3.15
2022-08-02T21:18:23.026Z,2.88
2022-08-02T21:21:04.512Z,2.50
2022-08-02T21:23:36.410Z,2.78
2022-08-02T21:26:04.494Z,2.40
2022-08-02T21:28:43.490Z,2.78
2022-08-02T21:31:12.148Z,2.38
2022-08-02T21:33:57.016Z,1.77
2022-08-02T21:36:31.785Z,2.58
2022-08-02T21:39:04.948Z,2.42
2022-08-02T21:41:38.982Z,2.13
2022-08-02T21:44:08.957Z,3.25
2022-08-02T21:46:36.276Z,2.60
2022-08-02T21:49:03.726Z,3.28
2022-08-02T21:51:34.341Z,2.80
2022-08-02T21:54:17.697Z,2.90
2022-08-02T21:56:51.845Z,2.50
2022-08-02T21:59:25.281Z,2.47
2022-08-02T22:01:54.303Z,2.47
2022-08-02T22:04:24.552Z,3.25
2022-08-02T22:06:51.846Z,2.40
2022-08-02T22:09:44.081Z,3.17
2022-08-02T22:12:09.944Z,2.97
2022-08-02T22:14:39.616Z,3.85
2022-08-02T22:17:08.832Z,3.55
2022-08-02T22:19:50.995Z,3.08
2022-08-02T22:22:21.615Z,2.90
2022-08-02T22:24:56.650Z,3.88
2022-08-02T22:28:36.096Z,3.65
2022-08-02T22:30:11.864Z,3.42
2022-08-02T22:32:58.381Z,3.33
2022-08-02T22:35:26.401Z,3.30
2022-08-02T22:38:16.628Z,3.60
2022-08-02T22:40:43.619Z,3.50
2022-08-02T22:43:11.236Z,4.47
2022-08-02T22:45:39.592Z,3.35
2022-08-02T22:48:07.195Z,3.53
2022-08-02T22:50:34.882Z,4.50
2022-08-02T22:53:03.119Z,5.30
2022-08-02T22:55:32.064Z,3.80
2022-08-02T22:57:59.982Z,3.33
2022-08-02T23:00:27.694Z,3.85
2022-08-02T23:02:54.983Z,4.13
2022-08-02T23:05:22.774Z,4.80
2022-08-02T23:07:50.043Z,3.47
2022-08-02T23:10:17.416Z,2.90
2022-08-02T23:12:44.835Z,3.28
2022-08-02T23:15:12.289Z,4.60
2022-08-02T23:17:58.441Z,3.53
2022-08-02T23:20:25.797Z,3.20
2022-08-02T23:22:53.074Z,3.65
2022-08-02T23:25:23.118Z,3.38
2022-08-02T23:27:51.286Z,4.00
2022-08-02T23:30:21.833Z,3.55
2022-08-02T23:32:49.101Z,3.55
2022-08-02T23:35:17.597Z,3.67
2022-08-02T23:38:00.352Z,4.07
2022-08-02T23:40:39.121Z,3.80
2022-08-02T23:43:13.804Z,4.40
2022-08-02T23:45:44.114Z,4.60
2022-08-02T23:48:11.438Z,4.55
2022-08-02T23:50:38.782Z,5.05
2022-08-02T23:53:06.145Z,5.03
2022-08-02T23:55:33.454Z,5.43
2022-08-02T23:58:00.736Z,7.25
